createdAt,value
2024-04-23T00:00:35.942Z,7.69
2024-04-23T00:03:02.760Z,8.01
2024-04-23T00:05:29.524Z,9.16
2024-04-23T00:07:56.356Z,10.50
2024-04-23T00:10:23.222Z,9.86
2024-04-23T00:12:49.993Z,8.94
2024-04-23T00:15:17.029Z,7.95
2024-04-23T00:17:43.903Z,7.39
2024-04-23T00:20:10.716Z,7.28
2024-04-23T00:22:37.767Z,7.06
2024-04-23T00:25:04.788Z,7.47
2024-04-23T00:27:31.525Z,7.24
2024-04-23T00:29:58.283Z,7.25
2024-04-23T00:32:25.037Z,7.50
2024-04-23T00:34:51.917Z,7.16
2024-04-23T00:37:18.641Z,7.26
2024-04-23T00:39:45.411Z,6.96
2024-04-23T00:42:12.227Z,7.14
2024-04-23T00:44:39.182Z,8.89
2024-04-23T00:47:06.435Z,14.81
2024-04-23T00:49:33.316Z,13.34
2024-04-23T00:52:00.576Z,8.20
2024-04-23T00:54:28.214Z,7.05
2024-04-23T00:56:58.002Z,6.32
2024-04-23T00:59:25.306Z,6.32
2024-04-23T01:01:53.801Z,6.32
2024-04-23T01:04:20.677Z,6.29
2024-04-23T01:06:51.157Z,7.44
2024-04-23T01:09:19.777Z,7.15
2024-04-23T01:11:47.826Z,6.65
2024-04-23T01:14:14.946Z,6.29
2024-04-23T01:16:46.213Z,6.98
2024-04-23T01:19:44.198Z,13.88
2024-04-23T01:22:18.099Z,6.96
2024-04-23T01:24:56.761Z,6.47
2024-04-23T01:27:23.505Z,7.04
2024-04-23T01:29:51.856Z,6.61
2024-04-23T01:32:23.923Z,6.67
2024-04-23T01:34:53.481Z,6.71
2024-04-23T01:37:24.902Z,6.52
2024-04-23T01:39:53.500Z,6.18
2024-04-23T01:42:21.084Z,5.84
2024-04-23T01:44:48.980Z,6.46
2024-04-23T01:47:15.889Z,6.23
2024-04-23T01:49:44.849Z,6.44
2024-04-23T01:52:11.908Z,6.12
2024-04-23T01:54:40.326Z,6.57
2024-04-23T01:57:09.010Z,6.52
2024-04-23T01:59:51.390Z,6.27
2024-04-23T02:02:20.604Z,6.31
2024-04-23T02:04:48.136Z,6.36
2024-04-23T02:07:17.831Z,6.43
2024-04-23T02:09:47.389Z,6.72
2024-04-23T02:12:15.422Z,6.68
2024-04-23T02:14:43.199Z,6.88
2024-04-23T02:17:10.444Z,7.03
2024-04-23T02:19:37.393Z,6.97
2024-04-23T02:22:04.313Z,6.66
2024-04-23T02:24:31.141Z,7.27
2024-04-23T02:26:57.962Z,6.78
2024-04-23T02:29:24.937Z,6.98
2024-04-23T02:31:51.811Z,6.76
2024-04-23T02:34:18.631Z,7.35
2024-04-23T02:36:45.457Z,8.09
2024-04-23T02:39:12.280Z,8.30
2024-04-23T02:41:52.668Z,8.67
2024-04-23T02:44:19.741Z,8.93
2024-04-23T02:46:46.923Z,8.66
2024-04-23T02:49:13.838Z,8.36
2024-04-23T02:51:51.712Z,9.36
2024-04-23T02:54:18.609Z,8.95
2024-04-23T02:56:48.579Z,10.13
2024-04-23T02:59:16.436Z,10.42
2024-04-23T03:01:43.377Z,9.97
2024-04-23T03:04:10.475Z,7.79
2024-04-23T03:06:37.378Z,6.36
2024-04-23T03:09:04.381Z,6.20
2024-04-23T03:11:31.271Z,6.15
2024-04-23T03:13:58.152Z,6.76
2024-04-23T03:16:25.128Z,6.52
2024-04-23T03:18:51.985Z,6.36
2024-04-23T03:21:18.889Z,6.22
2024-04-23T03:23:45.740Z,6.13
2024-04-23T03:26:12.637Z,5.98
2024-04-23T03:28:39.529Z,6.27
2024-04-23T03:31:06.375Z,6.05
2024-04-23T03:33:33.239Z,5.78
2024-04-23T03:36:00.117Z,5.80
2024-04-23T03:38:27.023Z,5.71
2024-04-23T03:40:53.912Z,5.47
2024-04-23T03:43:21.104Z,5.69
2024-04-23T03:45:47.927Z,5.75
2024-04-23T03:48:14.996Z,5.64
2024-04-23T03:50:42.507Z,5.84
2024-04-23T03:53:09.457Z,5.69
2024-04-23T03:58:20.655Z,6.23
2024-04-23T04:00:47.480Z,5.97
2024-04-23T04:03:33.123Z,6.07
2024-04-23T04:06:05.920Z,6.13
2024-04-23T04:08:34.417Z,5.78
2024-04-23T04:11:01.485Z,6.09
2024-04-23T04:13:28.321Z,5.79
2024-04-23T04:15:55.088Z,5.75
2024-04-23T04:18:22.349Z,6.10
2024-04-23T04:20:49.281Z,5.97
2024-04-23T04:23:16.072Z,5.68
2024-04-23T04:25:42.847Z,6.46
2024-04-23T04:28:09.612Z,5.74
2024-04-23T04:30:36.339Z,5.90
2024-04-23T04:33:03.242Z,5.80
2024-04-23T04:35:30.084Z,6.52
2024-04-23T04:37:56.956Z,8.18
2024-04-23T04:40:23.924Z,10.52
2024-04-23T04:42:52.294Z,11.53
2024-04-23T04:45:19.316Z,7.93
2024-04-23T04:47:50.317Z,6.61
2024-04-23T04:50:20.951Z,6.49
2024-04-23T04:52:47.854Z,7.12
2024-04-23T04:55:14.693Z,6.82
2024-04-23T04:57:41.505Z,5.89
2024-04-23T05:00:08.755Z,6.43
2024-04-23T05:02:35.589Z,8.76
2024-04-23T05:05:02.481Z,12.88
2024-04-23T05:07:29.379Z,10.02
2024-04-23T05:09:56.198Z,8.76
2024-04-23T05:12:23.124Z,8.67
2024-04-23T05:14:49.902Z,8.17
2024-04-23T05:17:16.738Z,7.83
2024-04-23T05:19:45.887Z,7.40
2024-04-23T05:22:13.400Z,7.28
2024-04-23T05:24:40.204Z,7.39
2024-04-23T05:27:06.964Z,7.26
2024-04-23T05:29:33.702Z,7.38
2024-04-23T05:32:19.348Z,7.16
2024-04-23T05:34:46.197Z,7.78
2024-04-23T05:37:12.960Z,7.64
2024-04-23T05:39:39.687Z,7.80
2024-04-23T05:42:06.468Z,7.72
2024-04-23T05:44:33.252Z,7.58
2024-04-23T05:47:00.086Z,7.71
2024-04-23T05:50:04.694Z,7.54
2024-04-23T05:53:09.364Z,7.42
2024-04-23T05:55:40.826Z,7.51
2024-04-23T05:58:09.202Z,14.03
2024-04-23T06:00:37.732Z,9.82
2024-04-23T06:03:05.167Z,6.56
2024-04-23T06:05:32.164Z,17.55
2024-04-23T06:07:59.141Z,9.83
2024-04-23T06:10:26.069Z,6.72
2024-04-23T06:12:52.910Z,5.78
2024-04-23T06:15:19.987Z,5.52
2024-04-23T06:17:48.701Z,5.76
2024-04-23T06:20:15.871Z,5.49
2024-04-23T06:22:43.895Z,5.33
2024-04-23T06:25:12.194Z,5.81
2024-04-23T06:27:40.116Z,6.08
2024-04-23T06:30:08.846Z,5.78
2024-04-23T06:32:37.520Z,5.70
2024-04-23T06:35:06.238Z,6.68
2024-04-23T06:37:37.341Z,6.52
2024-04-23T06:40:10.326Z,5.59
2024-04-23T06:42:39.343Z,6.18
2024-04-23T06:45:06.820Z,7.00
2024-04-23T06:47:35.261Z,6.19
2024-04-23T06:50:02.630Z,5.81
2024-04-23T06:52:29.524Z,5.38
2024-04-23T06:54:56.353Z,5.46
2024-04-23T06:57:23.124Z,6.06
2024-04-23T06:59:49.869Z,5.92
2024-04-23T07:02:16.772Z,5.75
2024-04-23T07:04:43.743Z,5.06
2024-04-23T07:07:10.562Z,5.29
2024-04-23T07:09:37.322Z,5.33
2024-04-23T07:12:04.385Z,5.10
2024-04-23T07:14:31.143Z,5.21
2024-04-23T07:16:57.922Z,5.17
2024-04-23T07:19:24.656Z,4.82
2024-04-23T07:21:51.392Z,5.09
2024-04-23T07:24:18.123Z,5.12
2024-04-23T07:26:46.809Z,5.62
2024-04-23T07:29:13.616Z,4.53
2024-04-23T07:31:40.355Z,4.63
2024-04-23T07:34:07.113Z,4.68
2024-04-23T07:36:33.934Z,4.34
2024-04-23T07:39:00.670Z,4.79
2024-04-23T07:41:27.399Z,4.89
2024-04-23T07:43:54.184Z,4.36
2024-04-23T07:46:20.978Z,4.04
2024-04-23T07:48:47.791Z,4.14
2024-04-23T07:51:14.531Z,4.30
2024-04-23T07:53:41.293Z,4.65
2024-04-23T07:56:10.414Z,4.56
2024-04-23T07:58:38.327Z,4.01
2024-04-23T08:01:05.483Z,3.92
2024-04-23T08:03:32.538Z,3.84
2024-04-23T08:05:59.307Z,3.86
2024-04-23T08:08:26.100Z,3.40
2024-04-23T08:10:53.460Z,3.62
2024-04-23T08:13:20.254Z,3.92
2024-04-23T08:15:47.225Z,4.01
2024-04-23T08:18:14.074Z,3.77
2024-04-23T08:20:42.694Z,3.93
2024-04-23T08:23:10.471Z,3.50
2024-04-23T08:25:37.538Z,3.57
2024-04-23T08:28:04.689Z,3.42
2024-04-23T08:30:33.045Z,3.36
2024-04-23T08:32:59.923Z,3.39
2024-04-23T08:35:26.834Z,3.63
2024-04-23T08:37:53.619Z,3.60
2024-04-23T08:40:21.650Z,3.67
2024-04-23T08:42:53.508Z,4.16
2024-04-23T08:45:26.119Z,3.93
2024-04-23T08:47:53.342Z,3.67
2024-04-23T08:50:21.315Z,3.62
2024-04-23T08:52:50.671Z,3.65
2024-04-23T08:55:18.233Z,3.71
2024-04-23T08:57:45.552Z,3.91
2024-04-23T09:00:13.204Z,3.60
2024-04-23T09:02:42.229Z,3.88
2024-04-23T09:05:10.605Z,3.92
2024-04-23T09:07:38.630Z,3.98
2024-04-23T09:10:07.382Z,4.14
2024-04-23T09:12:34.408Z,3.79
2024-04-23T09:15:01.904Z,3.71
2024-04-23T09:17:32.937Z,3.99
2024-04-23T09:20:01.075Z,3.99
2024-04-23T09:22:28.388Z,3.84
2024-04-23T09:25:03.373Z,4.34
2024-04-23T09:27:33.405Z,4.29
2024-04-23T09:30:00.223Z,4.45
2024-04-23T09:32:27.230Z,3.67
2024-04-23T09:34:56.869Z,4.21
2024-04-23T09:37:23.726Z,3.96
2024-04-23T09:39:50.479Z,4.01
2024-04-23T09:42:24.523Z,4.42
2024-04-23T09:44:52.542Z,3.88
2024-04-23T09:47:20.011Z,3.86
2024-04-23T09:49:54.132Z,3.47
2024-04-23T09:52:36.846Z,3.54
2024-04-23T09:55:04.658Z,4.36
2024-04-23T09:57:33.583Z,4.28
2024-04-23T10:00:00.364Z,4.40
2024-04-23T10:02:29.069Z,3.68
2024-04-23T10:05:07.383Z,6.18
2024-04-23T10:07:44.783Z,3.91
2024-04-23T10:10:18.101Z,3.34
2024-04-23T10:12:54.829Z,3.78
2024-04-23T10:15:36.602Z,3.71
2024-04-23T10:18:13.341Z,3.69
2024-04-23T10:20:45.720Z,4.42
2024-04-23T10:23:19.216Z,6.87
2024-04-23T10:25:49.420Z,3.75
2024-04-23T10:28:16.445Z,4.02
2024-04-23T10:30:43.278Z,4.56
2024-04-23T10:33:13.499Z,4.53
2024-04-23T10:35:41.718Z,5.45
2024-04-23T10:38:12.146Z,4.02
2024-04-23T10:40:46.493Z,4.92
2024-04-23T10:43:21.203Z,7.60
2024-04-23T10:45:48.894Z,4.78
2024-04-23T10:48:28.979Z,3.64
2024-04-23T10:50:59.681Z,3.51
2024-04-23T10:53:26.913Z,3.73
2024-04-23T10:55:53.775Z,3.74
2024-04-23T10:58:21.272Z,3.86
2024-04-23T11:00:48.434Z,4.45
2024-04-23T11:03:18.487Z,3.98
2024-04-23T11:05:47.640Z,3.51
2024-04-23T11:08:24.853Z,3.41
2024-04-23T11:11:05.897Z,3.45
2024-04-23T11:13:42.652Z,3.22
2024-04-23T11:16:19.042Z,3.37
2024-04-23T11:18:52.614Z,3.44
2024-04-23T11:21:29.535Z,3.73
2024-04-23T11:24:01.246Z,3.71
2024-04-23T11:26:30.572Z,3.74
2024-04-23T11:28:58.481Z,3.42
2024-04-23T11:31:25.700Z,3.47
2024-04-23T11:33:54.060Z,3.89
2024-04-23T11:36:28.339Z,4.44
2024-04-23T11:39:02.751Z,3.51
2024-04-23T11:41:29.896Z,5.61
2024-04-23T11:43:56.922Z,3.34
2024-04-23T11:46:23.806Z,2.96
2024-04-23T11:48:51.773Z,3.04
2024-04-23T11:51:20.100Z,3.11
2024-04-23T11:53:47.181Z,3.19
2024-04-23T11:56:14.729Z,3.10
2024-04-23T11:58:42.109Z,3.37
2024-04-23T12:01:10.333Z,3.51
2024-04-23T12:03:38.846Z,3.43
2024-04-23T12:06:07.894Z,3.10
2024-04-23T12:08:36.284Z,3.05
2024-04-23T12:11:06.124Z,3.28
2024-04-23T12:13:32.969Z,3.49
2024-04-23T12:16:03.653Z,3.62
2024-04-23T12:18:30.434Z,3.19
2024-04-23T12:20:57.304Z,3.20
2024-04-23T12:23:25.075Z,3.27
2024-04-23T12:25:53.752Z,3.38
2024-04-23T12:28:21.855Z,3.18
2024-04-23T12:30:48.647Z,3.03
2024-04-23T12:33:15.629Z,3.16
2024-04-23T12:35:43.363Z,3.17
2024-04-23T12:38:14.427Z,2.86
2024-04-23T12:40:41.631Z,2.84
2024-04-23T12:43:10.589Z,2.88
2024-04-23T12:45:37.741Z,2.78
2024-04-23T12:48:05.227Z,2.82
2024-04-23T12:50:32.970Z,2.56
2024-04-23T12:52:59.948Z,2.72
2024-04-23T12:55:29.110Z,2.96
2024-04-23T12:57:55.900Z,3.33
2024-04-23T13:00:22.751Z,2.56
2024-04-23T13:02:49.705Z,3.30
2024-04-23T13:05:16.646Z,2.74
2024-04-23T13:07:43.502Z,2.67
2024-04-23T13:10:11.430Z,2.78
2024-04-23T13:12:38.203Z,2.78
2024-04-23T13:15:05.135Z,2.63
2024-04-23T13:17:32.026Z,2.54
2024-04-23T13:20:01.280Z,3.08
2024-04-23T13:22:28.825Z,2.99
2024-04-23T13:24:55.571Z,2.57
2024-04-23T13:27:22.372Z,2.41
2024-04-23T13:29:49.113Z,2.11
2024-04-23T13:32:16.041Z,2.33
2024-04-23T13:34:42.928Z,2.41
2024-04-23T13:37:09.853Z,2.26
2024-04-23T13:39:36.721Z,2.15
2024-04-23T13:42:03.526Z,2.29
2024-04-23T13:44:30.577Z,2.26
2024-04-23T13:46:57.750Z,1.98
2024-04-23T13:49:24.635Z,2.19
2024-04-23T13:51:51.422Z,2.10
2024-04-23T13:54:18.166Z,2.07
2024-04-23T13:56:44.935Z,2.10
2024-04-23T13:59:13.644Z,2.05
2024-04-23T14:01:41.827Z,2.12
2024-04-23T14:04:08.791Z,2.44
2024-04-23T14:06:35.675Z,2.12
2024-04-23T14:09:02.422Z,2.34
2024-04-23T14:11:31.226Z,2.19
2024-04-23T14:13:58.234Z,2.72
2024-04-23T14:16:25.140Z,2.31
2024-04-23T14:18:53.231Z,2.05
2024-04-23T14:21:20.255Z,2.04
2024-04-23T14:23:47.197Z,2.12
2024-04-23T14:26:18.738Z,2.00
2024-04-23T14:28:45.987Z,2.37
2024-04-23T14:31:13.148Z,2.22
2024-04-23T14:33:44.824Z,1.98
2024-04-23T14:36:12.666Z,2.11
2024-04-23T14:38:40.220Z,2.39
2024-04-23T14:41:07.715Z,2.59
2024-04-23T14:43:34.992Z,2.39
2024-04-23T14:46:12.927Z,2.25
2024-04-23T14:48:40.615Z,2.15
2024-04-23T14:51:08.005Z,2.10
2024-04-23T14:53:34.745Z,2.37
2024-04-23T14:56:03.048Z,2.60
2024-04-23T14:58:31.102Z,2.30
2024-04-23T15:00:58.340Z,2.15
2024-04-23T15:03:25.286Z,2.15
2024-04-23T15:05:52.166Z,1.88
2024-04-23T15:08:19.022Z,2.09
2024-04-23T15:10:49.993Z,1.91
2024-04-23T15:13:18.780Z,2.07
2024-04-23T15:15:46.385Z,2.41
2024-04-23T15:18:13.395Z,2.16
2024-04-23T15:20:41.393Z,2.09
2024-04-23T15:23:08.351Z,2.06
2024-04-23T15:25:35.269Z,2.25
2024-04-23T15:28:02.050Z,1.98
2024-04-23T15:30:28.893Z,2.10
2024-04-23T15:32:56.581Z,1.82
2024-04-23T15:35:24.308Z,2.03
2024-04-23T15:37:51.166Z,1.82
2024-04-23T15:40:18.009Z,1.86
2024-04-23T15:42:44.733Z,1.73
2024-04-23T15:45:12.741Z,1.95
2024-04-23T15:47:39.896Z,1.91
2024-04-23T15:50:07.131Z,1.79
2024-04-23T15:52:34.223Z,1.90
2024-04-23T15:55:00.976Z,1.88
2024-04-23T15:57:27.745Z,1.79
2024-04-23T15:59:54.502Z,1.74
2024-04-23T16:02:22.042Z,1.73
2024-04-23T16:04:49.166Z,1.65
2024-04-23T16:07:16.068Z,1.71
2024-04-23T16:09:42.889Z,1.84
2024-04-23T16:12:10.038Z,1.79
2024-04-23T16:14:37.032Z,2.53
2024-04-23T16:17:04.151Z,2.41
2024-04-23T16:19:30.951Z,1.69
2024-04-23T16:21:58.020Z,1.56
2024-04-23T16:24:24.835Z,1.77
2024-04-23T16:26:51.705Z,1.72
2024-04-23T16:29:18.637Z,1.86
2024-04-23T16:31:45.502Z,2.00
2024-04-23T16:34:12.404Z,1.79
2024-04-23T16:36:39.188Z,1.68
2024-04-23T16:39:05.931Z,1.85
2024-04-23T16:41:33.073Z,2.01
2024-04-23T16:43:59.904Z,3.27
2024-04-23T16:46:26.720Z,2.97
2024-04-23T16:48:53.634Z,1.99
2024-04-23T16:51:20.412Z,1.99
2024-04-23T16:53:48.566Z,1.79
2024-04-23T16:56:17.837Z,1.73
2024-04-23T16:58:44.716Z,1.90
2024-04-23T17:01:11.813Z,1.77
2024-04-23T17:03:39.674Z,1.79
2024-04-23T17:06:06.797Z,1.82
2024-04-23T17:08:33.655Z,1.86
2024-04-23T17:11:01.291Z,2.03
2024-04-23T17:13:28.086Z,2.03
2024-04-23T17:15:54.955Z,1.97
2024-04-23T17:18:21.773Z,2.04
2024-04-23T17:20:48.632Z,2.14
2024-04-23T17:23:18.241Z,2.13
2024-04-23T17:25:45.184Z,2.31
2024-04-23T17:28:11.980Z,2.22
2024-04-23T17:30:38.711Z,2.04
2024-04-23T17:33:06.927Z,2.36
2024-04-23T17:35:33.962Z,2.09
2024-04-23T17:38:00.796Z,2.00
2024-04-23T17:40:27.593Z,1.70
2024-04-23T17:42:54.429Z,1.92
2024-04-23T17:45:21.192Z,1.81
2024-04-23T17:47:48.177Z,1.86
2024-04-23T17:50:15.388Z,1.78
2024-04-23T17:52:42.413Z,1.86
2024-04-23T17:55:09.256Z,2.83
2024-04-23T17:57:36.092Z,3.01
2024-04-23T18:00:06.268Z,3.61
2024-04-23T18:02:33.055Z,2.67
2024-04-23T18:05:01.641Z,2.68
2024-04-23T18:07:28.728Z,2.81
2024-04-23T18:09:55.475Z,2.45
2024-04-23T18:12:22.946Z,2.61
2024-04-23T18:14:51.115Z,2.54
2024-04-23T18:17:17.957Z,2.55
2024-04-23T18:19:44.897Z,2.43
2024-04-23T18:22:11.629Z,2.47
2024-04-23T18:24:38.498Z,2.48
2024-04-23T18:27:05.324Z,2.69
2024-04-23T18:29:32.063Z,2.60
2024-04-23T18:31:58.937Z,2.62
2024-04-23T18:34:25.694Z,2.80
2024-04-23T18:36:52.498Z,2.73
2024-04-23T18:39:19.288Z,2.60
2024-04-23T18:41:46.669Z,2.58
2024-04-23T18:44:14.336Z,2.59
2024-04-23T18:46:41.264Z,2.41
2024-04-23T18:49:08.146Z,2.43
2024-04-23T18:51:34.928Z,2.50
2024-04-23T18:54:01.715Z,2.36
2024-04-23T18:56:28.444Z,2.66
2024-04-23T18:58:55.197Z,2.85
2024-04-23T19:01:22.035Z,2.49
2024-04-23T19:03:49.543Z,2.64
2024-04-23T19:06:18.426Z,2.71
2024-04-23T19:08:47.269Z,3.05
2024-04-23T19:11:15.584Z,3.18
2024-04-23T19:13:42.828Z,3.18
2024-04-23T19:16:13.396Z,2.89
2024-04-23T19:18:45.319Z,3.36
2024-04-23T19:21:12.172Z,3.47
2024-04-23T19:23:38.938Z,5.24
2024-04-23T19:26:05.973Z,6.48
2024-04-23T19:28:35.769Z,10.69
2024-04-23T19:31:09.791Z,5.27
2024-04-23T19:33:36.952Z,5.78
2024-04-23T19:36:04.022Z,20.38
2024-04-23T19:38:32.793Z,6.86
2024-04-23T19:41:06.857Z,6.51
2024-04-23T19:43:42.202Z,8.59
2024-04-23T19:46:18.635Z,3.33
2024-04-23T19:48:46.365Z,3.60
2024-04-23T19:51:19.493Z,6.40
2024-04-23T19:53:52.187Z,4.56
2024-04-23T19:56:37.143Z,3.37
2024-04-23T19:59:06.785Z,3.23
2024-04-23T20:01:39.274Z,3.25
2024-04-23T20:04:06.606Z,3.88
2024-04-23T20:06:34.270Z,13.63
2024-04-23T20:09:02.904Z,11.77
2024-04-23T20:11:29.948Z,16.45
2024-04-23T20:13:56.807Z,10.48
2024-04-23T20:16:24.351Z,5.51
2024-04-23T20:18:53.776Z,5.53
2024-04-23T20:21:20.563Z,5.37
2024-04-23T20:23:53.456Z,3.76
2024-04-23T20:26:20.805Z,3.56
2024-04-23T20:28:47.695Z,3.42
2024-04-23T20:31:14.560Z,4.08
2024-04-23T20:33:42.388Z,3.98
2024-04-23T20:36:09.995Z,4.02
2024-04-23T20:38:36.801Z,4.01
2024-04-23T20:41:07.672Z,4.14
2024-04-23T20:43:34.828Z,4.78
2024-04-23T20:46:05.625Z,4.86
2024-04-23T20:48:34.276Z,4.50
2024-04-23T20:51:01.085Z,4.61
2024-04-23T20:53:27.945Z,4.86
2024-04-23T20:55:54.693Z,5.66
2024-04-23T20:58:22.141Z,6.10
2024-04-23T21:00:49.235Z,5.31
2024-04-23T21:03:16.160Z,4.83
2024-04-23T21:05:43.040Z,5.26
2024-04-23T21:08:12.187Z,6.10
2024-04-23T21:10:39.824Z,6.02
2024-04-23T21:13:06.933Z,5.28
2024-04-23T21:15:34.964Z,4.93
2024-04-23T21:18:02.097Z,4.86
2024-04-23T21:20:28.988Z,5.01
2024-04-23T21:22:55.794Z,4.50
2024-04-23T21:25:22.571Z,4.31
2024-04-23T21:27:49.334Z,4.10
2024-04-23T21:30:16.401Z,3.95
2024-04-23T21:32:43.450Z,4.28
2024-04-23T21:35:10.477Z,4.34
2024-04-23T21:37:38.313Z,4.07
2024-04-23T21:40:06.154Z,4.17
2024-04-23T21:42:40.880Z,4.03
2024-04-23T21:45:09.067Z,4.06
2024-04-23T21:47:36.537Z,4.54
2024-04-23T21:50:04.592Z,4.23
2024-04-23T21:52:39.950Z,4.22
2024-04-23T21:55:09.728Z,4.26
2024-04-23T21:57:36.764Z,4.36
2024-04-23T22:00:04.158Z,4.07
2024-04-23T22:02:31.151Z,4.09
2024-04-23T22:04:58.002Z,3.89
2024-04-23T22:07:24.779Z,3.96
2024-04-23T22:09:51.516Z,4.26
2024-04-23T22:12:18.319Z,4.20
2024-04-23T22:14:45.077Z,5.69
2024-04-23T22:17:12.509Z,5.84
2024-04-23T22:19:39.405Z,4.82
2024-04-23T22:22:06.178Z,4.97
2024-04-23T22:24:32.978Z,4.86
2024-04-23T22:26:59.714Z,4.44
2024-04-23T22:29:26.640Z,4.54
2024-04-23T22:31:53.514Z,5.08
2024-04-23T22:34:20.329Z,4.27
2024-04-23T22:36:47.097Z,4.26
2024-04-23T22:39:13.895Z,4.10
2024-04-23T22:41:40.699Z,4.70
2024-04-23T22:44:07.450Z,4.63
2024-04-23T22:46:34.223Z,4.71
2024-04-23T22:49:03.440Z,4.65
2024-04-23T22:51:30.415Z,4.25
2024-04-23T22:53:57.284Z,4.29
2024-04-23T22:56:24.501Z,4.43
2024-04-23T22:58:51.274Z,4.82
2024-04-23T23:01:18.062Z,4.76
2024-04-23T23:03:44.862Z,4.72
2024-04-23T23:06:11.649Z,4.84
2024-04-23T23:08:38.381Z,4.61
2024-04-23T23:11:05.235Z,4.67
2024-04-23T23:13:32.019Z,4.49
2024-04-23T23:15:59.021Z,4.70
2024-04-23T23:18:25.758Z,4.75
2024-04-23T23:20:52.676Z,4.52
2024-04-23T23:23:19.626Z,4.47
2024-04-23T23:25:46.546Z,4.74
2024-04-23T23:28:13.521Z,4.76
2024-04-23T23:30:40.287Z,4.82
2024-04-23T23:33:07.283Z,4.91
2024-04-23T23:35:34.166Z,4.75
2024-04-23T23:38:00.971Z,4.66
2024-04-23T23:40:27.753Z,4.83
2024-04-23T23:42:55.931Z,4.59
2024-04-23T23:45:24.310Z,4.43
2024-04-23T23:47:52.412Z,4.51
2024-04-23T23:50:19.363Z,4.72
2024-04-23T23:52:46.256Z,4.69
2024-04-23T23:55:13.092Z,4.73
2024-04-23T23:57:41.091Z,4.86
